Time;durP1;ratioP1;P1;durP2;ratioP2;P2;SDS_P1;SDS_P2;PMS_P1;PMS_P2;Temp;Humidity;BMP_temperature;BMP_pressure;BME280_temperature;BME280_humidity;BME280_pressure;Samples;Min_cycle;Max_cycle;Signal;HPM_P1;HPM_P2
2022/11/07 00:00:10;;;;;;;10.68;4.95;;;3.40;99.90;;;;;;5028683;29;20041;-74
2022/11/07 00:03:01;;;;;;;8.38;4.53;;;3.30;99.90;;;;;;4979711;29;20217;-71
2022/11/07 00:05:56;;;;;;;8.60;5.22;;;3.40;99.90;;;;;;4961796;29;20046;-73
2022/11/07 00:08:52;;;;;;;8.65;4.57;;;3.40;99.90;;;;;;4959211;29;20716;-73
2022/11/07 00:11:44;;;;;;;5.40;4.07;;;3.40;99.90;;;;;;4965067;29;20028;-73
2022/11/07 00:14:40;;;;;;;10.90;4.80;;;3.50;99.90;;;;;;4973870;29;20034;-73
2022/11/07 00:17:52;;;;;;;9.95;5.82;;;3.40;99.90;;;;;;4990128;29;20046;-73
2022/11/07 00:20:43;;;;;;;6.80;4.78;;;3.40;99.90;;;;;;4951004;29;20033;-72
2022/11/07 00:23:39;;;;;;;8.68;5.00;;;3.30;99.90;;;;;;4969605;29;20034;-74
2022/11/07 00:26:30;;;;;;;7.72;4.38;;;3.30;99.90;;;;;;4986650;29;20035;-74
2022/11/07 00:29:48;;;;;;;13.68;4.18;;;3.30;99.90;;;;;;4985633;29;20483;-74
2022/11/07 00:35:51;;;;;;;10.60;4.25;;;3.20;99.90;;;;;;5007481;29;20033;-74
2022/11/07 00:38:43;;;;;;;;;;;;;;;;;;;;;
2022/11/07 00:41:54;;;;;;;9.18;4.38;;;3.20;99.90;;;;;;5022847;29;20354;-73
2022/11/07 00:44:46;;;;;;;;;;;;;;;;;;;;;
2022/11/07 00:47:57;;;;;;;7.63;4.13;;;3.20;99.90;;;;;;4989037;29;20332;-74
2022/11/07 00:50:54;;;;;;;6.70;3.85;;;3.20;99.90;;;;;;4988659;29;20041;-73
2022/11/07 00:54:10;;;;;;;7.32;4.28;;;3.20;99.90;;;;;;4988951;29;20042;-73
2022/11/07 01:00:25;;;;;;;12.88;4.15;;;3.20;99.90;;;;;;4878897;30;20045;-73
2022/11/07 01:06:47;;;;;;;5.38;3.50;;;3.20;99.90;;;;;;4921539;30;20365;-74
2022/11/07 01:09:39;;;;;;;8.18;3.65;;;3.20;99.90;;;;;;4896253;30;20306;-74
2022/11/07 01:12:50;;;;;;;7.65;4.05;;;3.20;99.90;;;;;;4884318;30;20037;-74
2022/11/07 01:15:44;;;;;;;5.88;3.45;;;3.30;99.90;;;;;;4896137;30;20048;-74
2022/11/07 01:18:36;;;;;;;4.53;2.95;;;3.20;99.90;;;;;;4912670;30;20054;-73
2022/11/07 01:21:27;;;;;;;4.90;2.60;;;3.30;99.90;;;;;;4937381;29;20034;-74
2022/11/07 01:24:19;;;;;;;7.25;3.55;;;3.30;99.90;;;;;;4944907;29;20052;-73
2022/11/07 01:27:13;;;;;;;5.50;3.00;;;3.40;99.90;;;;;;4960620;29;20031;-73
2022/11/07 01:30:24;;;;;;;5.75;3.70;;;3.40;99.90;;;;;;4949053;29;20057;-74
2022/11/07 01:33:16;;;;;;;8.05;3.40;;;3.40;99.90;;;;;;4972369;29;20038;-73
2022/11/07 01:36:10;;;;;;;6.68;3.38;;;3.50;99.90;;;;;;4988060;29;20034;-74
2022/11/07 01:39:05;;;;;;;7.72;3.05;;;3.50;99.90;;;;;;5029410;29;20203;-74
2022/11/07 01:42:16;;;;;;;5.03;3.35;;;3.60;99.90;;;;;;5032147;29;20063;-73
2022/11/07 01:48:33;;;;;;;7.10;2.83;;;3.70;99.90;;;;;;4975364;29;20081;-74
2022/11/07 01:51:25;;;;;;;7.10;3.13;;;3.70;99.90;;;;;;4974965;29;20038;-74
2022/11/07 01:54:21;;;;;;;;;;;;;;;;;;;;;
2022/11/07 01:58:08;;;;;;;5.13;3.05;;;3.80;99.90;;;;;;5061819;29;20159;-74
2022/11/07 02:01:20;;;;;;;5.53;3.03;;;3.80;99.90;;;;;;5072941;29;20045;-74
2022/11/07 02:04:18;;;;;;;4.50;3.22;;;3.70;99.90;;;;;;4965065;29;20039;-73
2022/11/07 02:07:18;;;;;;;7.38;4.50;;;3.70;99.90;;;;;;4974288;29;20035;-74
2022/11/07 02:10:16;;;;;;;6.00;3.15;;;3.80;99.90;;;;;;4951152;29;20060;-73
2022/11/07 02:13:07;;;;;;;4.80;3.15;;;3.80;99.90;;;;;;4955739;30;20690;-74
2022/11/07 02:16:03;;;;;;;4.55;3.05;;;4.10;99.90;;;;;;4955184;29;20058;-73
2022/11/07 02:18:55;;;;;;;4.03;3.22;;;4.20;99.90;;;;;;4925047;30;20069;-73
2022/11/07 02:22:03;;;;;;;6.63;3.20;;;4.20;99.90;;;;;;4952250;29;20047;-74
2022/11/07 02:25:20;;;;;;;3.33;2.78;;;4.20;99.90;;;;;;4987211;29;20235;-74
2022/11/07 02:28:13;;;;;;;8.23;3.20;;;4.20;99.90;;;;;;5010116;29;20359;-74
2022/11/07 02:31:28;;;;;;;6.95;3.80;;;4.10;99.90;;;;;;4995511;29;20044;-74
2022/11/07 02:34:22;;;;;;;6.17;3.93;;;4.20;99.90;;;;;;4998454;29;20047;-74
2022/11/07 02:37:24;;;;;;;4.60;3.17;;;4.20;99.90;;;;;;4991754;29;20274;-74
2022/11/07 02:40:20;;;;;;;4.32;2.97;;;4.20;99.90;;;;;;5001450;29;20053;-74
2022/11/07 02:43:33;;;;;;;5.95;3.70;;;4.10;99.90;;;;;;5068006;29;20266;-74
2022/11/07 02:46:25;;;;;;;6.63;3.78;;;4.10;99.90;;;;;;5027350;29;20041;-74
2022/11/07 02:49:37;;;;;;;4.20;2.67;;;4.10;99.90;;;;;;5029070;29;20068;-74
2022/11/07 02:52:30;;;;;;;3.65;3.17;;;4.10;99.90;;;;;;4981685;29;20043;-74
2022/11/07 02:55:44;;;;;;;4.00;2.83;;;4.10;99.90;;;;;;4970895;29;20067;-73
2022/11/07 02:58:38;;;;;;;3.97;3.08;;;4.10;99.90;;;;;;4974736;29;20054;-74
2022/11/07 03:01:49;;;;;;;5.20;2.28;;;4.10;99.90;;;;;;4979760;29;20033;-74
2022/11/07 03:04:46;;;;;;;5.78;2.75;;;4.10;99.90;;;;;;4925387;30;20062;-74
2022/11/07 03:07:37;;;;;;;4.57;2.85;;;4.10;99.90;;;;;;4934408;30;20031;-73
2022/11/07 03:10:28;;;;;;;4.65;2.90;;;4.20;99.90;;;;;;4934409;30;20048;-74
2022/11/07 03:13:20;;;;;;;4.70;2.70;;;4.20;99.90;;;;;;4928228;30;20046;-74
2022/11/07 03:16:12;;;;;;;3.72;2.80;;;4.20;99.90;;;;;;4934213;30;20048;-73
2022/11/07 03:19:26;;;;;;;3.58;2.45;;;4.30;99.90;;;;;;4934045;30;20047;-73
2022/11/07 03:22:19;;;;;;;3.60;2.53;;;4.30;99.90;;;;;;4953169;29;20035;-74
2022/11/07 03:25:36;;;;;;;3.72;2.50;;;4.40;99.90;;;;;;4959503;29;20035;-74
2022/11/07 03:28:28;;;;;;;5.00;2.88;;;4.40;99.90;;;;;;4973610;29;20041;-74
2022/11/07 03:31:39;;;;;;;7.15;3.45;;;4.50;99.90;;;;;;5047641;29;20575;-74
2022/11/07 03:34:31;;;;;;;5.30;2.65;;;4.60;99.90;;;;;;5044038;29;20680;-73
2022/11/07 03:37:25;;;;;;;3.20;2.42;;;4.70;99.90;;;;;;5027342;29;20036;-74
2022/11/07 03:40:19;;;;;;;4.38;3.05;;;4.80;99.90;;;;;;5014051;29;20047;-74
2022/11/07 03:43:10;;;;;;;3.63;3.00;;;5.20;99.90;;;;;;5039844;29;20037;-73
2022/11/07 03:46:02;;;;;;;4.85;3.30;;;5.30;99.90;;;;;;5027267;29;20041;-74
2022/11/07 03:49:13;;;;;;;5.55;2.80;;;5.50;99.90;;;;;;5027707;29;20628;-73
2022/11/07 03:52:07;;;;;;;5.45;2.65;;;5.50;99.90;;;;;;4992619;29;20197;-75
2022/11/07 03:54:59;;;;;;;5.73;3.10;;;5.50;99.90;;;;;;4992558;29;20488;-74
2022/11/07 03:57:54;;;;;;;5.03;2.75;;;5.50;99.90;;;;;;4994157;29;20046;-74
2022/11/07 04:00:45;;;;;;;4.25;2.80;;;5.40;99.90;;;;;;4991046;29;20034;-73
2022/11/07 04:03:37;;;;;;;3.95;2.90;;;5.50;99.90;;;;;;5008892;29;20041;-73
2022/11/07 04:06:28;;;;;;;5.55;3.28;;;5.60;99.90;;;;;;5055842;29;20048;-73
2022/11/07 04:09:20;;;;;;;5.45;3.05;;;5.60;99.90;;;;;;5067043;29;20048;-74
2022/11/07 04:18:33;;;;;;;5.90;3.03;;;5.80;99.90;;;;;;5124927;28;20478;-73
2022/11/07 04:21:27;;;;;;;4.30;2.97;;;5.80;99.90;;;;;;5125905;28;20035;-74
2022/11/07 04:24:18;;;;;;;6.18;2.90;;;5.90;99.90;;;;;;5122351;28;20027;-74
2022/11/07 04:30:28;;;;;;;6.03;3.88;;;5.90;99.90;;;;;;5185616;28;20044;-74
2022/11/07 04:33:20;;;;;;;7.85;3.60;;;5.70;99.90;;;;;;5207893;28;20051;-74
2022/11/07 04:36:11;;;;;;;9.57;4.78;;;5.60;99.90;;;;;;5206665;28;20021;-74
2022/11/07 04:39:03;;;;;;;10.35;4.85;;;5.50;99.90;;;;;;5205797;28;20037;-74
2022/11/07 04:41:55;;;;;;;10.05;5.20;;;5.50;99.90;;;;;;5206339;28;20199;-74
2022/11/07 04:44:46;;;;;;;8.68;5.88;;;5.50;99.90;;;;;;5207425;28;20043;-74
2022/11/07 04:50:53;;;;;;;10.02;5.50;;;5.60;99.90;;;;;;5183975;28;20335;-74
2022/11/07 04:53:44;;;;;;;13.05;6.13;;;5.60;99.90;;;;;;5183048;28;20037;-72
2022/11/07 04:56:38;;;;;;;10.13;6.20;;;5.50;99.90;;;;;;5184046;28;20034;-73
2022/11/07 04:59:52;;;;;;;11.90;6.72;;;5.60;99.90;;;;;;5184394;28;20034;-73
2022/11/07 05:02:44;;;;;;;10.15;6.50;;;5.50;99.90;;;;;;5123345;28;20039;-73
2022/11/07 05:05:41;;;;;;;9.77;6.47;;;5.50;99.90;;;;;;5114188;28;20043;-74
2022/11/07 05:08:35;;;;;;;8.60;6.07;;;5.50;99.90;;;;;;5115944;29;20050;-73
2022/11/07 05:11:26;;;;;;;7.75;5.38;;;5.60;99.90;;;;;;5129189;28;20045;-73
2022/11/07 05:14:18;;;;;;;9.77;6.50;;;5.50;99.90;;;;;;5106969;28;20039;-73
2022/11/07 05:17:15;;;;;;;14.35;5.75;;;5.50;99.90;;;;;;5115216;29;20035;-73
2022/11/07 05:23:58;;;;;;;11.13;5.97;;;5.50;99.90;;;;;;5089126;29;20044;-74
2022/11/07 05:26:49;;;;;;;9.32;5.28;;;5.60;99.90;;;;;;5037269;29;20474;-73
2022/11/07 05:29:41;;;;;;;9.13;6.10;;;5.70;99.90;;;;;;5038352;29;20051;-73
2022/11/07 05:32:41;;;;;;;12.15;6.18;;;5.70;99.90;;;;;;5036846;29;20059;-73
2022/11/07 05:35:52;;;;;;;11.25;6.43;;;5.60;99.90;;;;;;5049738;29;20037;-72
2022/11/07 05:38:46;;;;;;;13.95;6.03;;;5.80;99.90;;;;;;5001814;29;20029;-73
2022/11/07 05:42:03;;;;;;;10.93;6.80;;;5.80;99.90;;;;;;5049897;29;20039;-73
2022/11/07 05:44:55;;;;;;;11.27;6.38;;;5.90;99.90;;;;;;5031274;29;20533;-73
2022/11/07 05:48:08;;;;;;;10.73;5.55;;;5.90;99.90;;;;;;5030029;29;20044;-73
2022/11/07 05:54:12;;;;;;;8.75;5.72;;;5.80;99.90;;;;;;5047933;29;20047;-74
2022/11/07 05:57:03;;;;;;;8.60;6.00;;;5.90;99.90;;;;;;5036034;29;20082;-74
2022/11/07 05:59:54;;;;;;;8.25;5.55;;;5.90;99.90;;;;;;5039352;29;20041;-74
2022/11/07 06:02:54;;;;;;;10.55;5.60;;;5.90;99.90;;;;;;5014335;29;20064;-74
2022/11/07 06:05:45;;;;;;;12.40;5.68;;;6.00;99.90;;;;;;5020314;29;20041;-74
2022/11/07 06:08:39;;;;;;;10.55;6.68;;;6.00;99.90;;;;;;5029359;29;20049;-75
2022/11/07 06:11:51;;;;;;;12.57;6.63;;;6.10;99.90;;;;;;5029499;29;20564;-74
2022/11/07 06:14:44;;;;;;;11.55;6.32;;;6.10;99.90;;;;;;5026948;29;20071;-74
2022/11/07 06:17:36;;;;;;;10.23;6.80;;;6.00;99.90;;;;;;5084828;29;20050;-73
2022/11/07 06:20:31;;;;;;;10.30;6.40;;;6.10;99.90;;;;;;5077798;29;20123;-74
2022/11/07 06:23:22;;;;;;;11.90;6.25;;;6.20;99.90;;;;;;5106679;28;20023;-74
2022/11/07 06:26:15;;;;;;;10.82;6.45;;;6.10;99.90;;;;;;5107614;28;20047;-74
2022/11/07 06:29:27;;;;;;;13.63;7.50;;;6.10;99.90;;;;;;5089407;28;20046;-73
2022/11/07 06:32:18;;;;;;;13.57;5.78;;;6.20;99.90;;;;;;5088190;28;20344;-74
2022/11/07 06:35:12;;;;;;;7.88;5.35;;;6.20;99.90;;;;;;5110770;29;20042;-73
2022/11/07 06:41:22;;;;;;;15.90;6.38;;;6.40;99.90;;;;;;5059155;29;20278;-75
2022/11/07 06:44:16;;;;;;;9.13;6.10;;;6.40;99.90;;;;;;5048919;29;20040;-74
2022/11/07 06:47:07;;;;;;;11.32;7.07;;;6.50;99.90;;;;;;5050373;29;20025;-74
2022/11/07 06:53:33;;;;;;;11.77;6.35;;;6.50;99.90;;;;;;5078599;29;20063;-74
2022/11/07 06:56:27;;;;;;;11.55;6.68;;;6.60;99.90;;;;;;5024231;29;20049;-74
2022/11/07 06:59:39;;;;;;;9.80;6.10;;;6.50;99.90;;;;;;5010803;29;20040;-75
2022/11/07 07:02:30;;;;;;;11.95;6.75;;;6.60;99.90;;;;;;4905079;30;20040;-71
2022/11/07 07:05:22;;;;;;;11.68;7.30;;;6.60;99.90;;;;;;4907158;30;20059;-72
2022/11/07 07:08:13;;;;;;;;;;;;;;;;;;;;;
2022/11/07 07:11:45;;;;;;;11.40;6.43;;;6.60;99.90;;;;;;4918769;30;20042;-72
2022/11/07 07:14:37;;;;;;;12.77;7.30;;;6.80;99.90;;;;;;4944529;29;20041;-72
2022/11/07 07:17:48;;;;;;;8.68;5.97;;;6.90;99.90;;;;;;4941683;29;20040;-73
2022/11/07 07:24:04;;;;;;;15.15;7.75;;;7.30;99.90;;;;;;4967277;29;20542;-73
2022/11/07 07:26:56;;;;;;;11.73;7.38;;;7.60;99.90;;;;;;4962934;29;20046;-74
2022/11/07 07:29:47;;;;;;;10.98;6.13;;;7.70;99.90;;;;;;4985636;29;20042;-72
2022/11/07 07:32:43;;;;;;;13.73;7.97;;;7.90;99.90;;;;;;5026640;29;20045;-73
2022/11/07 07:35:35;;;;;;;16.42;9.93;;;7.90;99.90;;;;;;5045969;29;20047;-73
2022/11/07 07:38:28;;;;;;;;;;;;;;;;;;;;;
2022/11/07 07:42:00;;;;;;;13.98;8.60;;;7.90;99.90;;;;;;5064957;29;20032;-73
2022/11/07 07:44:51;;;;;;;11.45;7.57;;;7.90;99.90;;;;;;5020836;29;20646;-73
2022/11/07 07:47:43;;;;;;;11.15;7.63;;;8.10;99.90;;;;;;5012909;29;20045;-73
2022/11/07 07:50:34;;;;;;;11.25;8.60;;;8.30;99.90;;;;;;5007836;29;20041;-74
2022/11/07 07:53:48;;;;;;;17.63;7.25;;;8.30;99.90;;;;;;5009794;29;20042;-73
2022/11/07 07:56:40;;;;;;;13.38;6.75;;;8.40;99.90;;;;;;4960238;29;20054;-73
2022/11/07 07:59:31;;;;;;;11.02;7.18;;;8.60;99.90;;;;;;4952905;29;20432;-73
2022/11/07 08:02:43;;;;;;;9.15;6.93;;;8.80;99.90;;;;;;4989551;29;20463;-73
2022/11/07 08:05:36;;;;;;;9.40;6.07;;;9.10;99.90;;;;;;4961253;29;20092;-73
2022/11/07 08:08:48;;;;;;;;;;;;;;;;;;;;;
2022/11/07 08:12:00;;;;;;;10.93;7.00;;;9.50;99.90;;;;;;4948350;30;20063;-73
2022/11/07 08:14:51;;;;;;;16.85;8.82;;;9.90;99.90;;;;;;4950816;30;20047;-72
2022/11/07 08:18:03;;;;;;;12.73;7.32;;;10.00;99.90;;;;;;4959293;29;20050;-71
2022/11/07 08:20:58;;;;;;;12.38;6.82;;;10.20;99.90;;;;;;4956574;29;20474;-73
2022/11/07 08:23:52;;;;;;;9.55;6.97;;;10.40;99.90;;;;;;4951123;29;20047;-74
2022/11/07 08:26:46;;;;;;;11.10;6.45;;;10.40;99.90;;;;;;4952059;29;20035;-73
2022/11/07 08:29:38;;;;;;;6.70;5.78;;;10.50;99.90;;;;;;4952830;29;20049;-72
2022/11/07 08:32:29;;;;;;;10.68;7.95;;;10.70;99.90;;;;;;4954444;29;20359;-71
2022/11/07 08:35:20;;;;;;;10.30;5.80;;;10.80;99.90;;;;;;4973529;29;20030;-73
2022/11/07 08:38:12;;;;;;;6.68;5.60;;;10.90;99.90;;;;;;4970079;29;20038;-74
2022/11/07 08:41:04;;;;;;;12.13;6.30;;;11.00;99.90;;;;;;4969634;29;20596;-73
2022/11/07 08:43:55;;;;;;;6.88;5.32;;;11.20;99.90;;;;;;4970793;29;20042;-74
2022/11/07 08:46:47;;;;;;;10.00;5.63;;;11.30;99.90;;;;;;4972925;29;20038;-73
2022/11/07 08:49:58;;;;;;;;;;;;;;;;;;;;;
2022/11/07 08:53:10;;;;;;;12.68;7.22;;;11.50;99.90;;;;;;5015365;29;20037;-72
2022/11/07 08:59:41;;;;;;;10.63;6.20;;;11.80;99.90;;;;;;5059584;29;20043;-74
2022/11/07 09:02:32;;;;;;;9.07;5.10;;;12.10;99.90;;;;;;5049350;29;20080;-74
2022/11/07 09:05:24;;;;;;;7.93;5.85;;;12.40;99.90;;;;;;5046247;29;20049;-74
2022/11/07 09:08:35;;;;;;;8.27;5.45;;;12.90;99.90;;;;;;5041817;29;20053;-73
2022/11/07 09:11:27;;;;;;;5.10;4.57;;;13.10;99.90;;;;;;5032690;29;20037;-71
2022/11/07 09:14:19;;;;;;;6.38;4.38;;;13.40;99.90;;;;;;5024424;29;20396;-74
2022/11/07 09:17:31;;;;;;;9.20;4.78;;;13.70;99.90;;;;;;5034660;29;20071;-72
2022/11/07 09:23:37;;;;;;;10.70;5.90;;;13.40;99.90;;;;;;4959776;29;20087;-73
2022/11/07 09:26:29;;;;;;;;;;;;;;;;;;;;;
2022/11/07 09:29:41;;;;;;;8.68;4.63;;;13.40;99.90;;;;;;4968860;29;20074;-74
2022/11/07 09:32:32;;;;;;;9.85;5.32;;;13.60;99.90;;;;;;4969908;29;20229;-74
2022/11/07 09:35:44;;;;;;;7.32;4.95;;;13.90;99.90;;;;;;4962724;29;20041;-73
2022/11/07 09:38:36;;;;;;;7.85;5.15;;;13.60;99.90;;;;;;4938128;29;20048;-73
2022/11/07 09:45:43;;;;;;;6.25;4.80;;;14.20;99.90;;;;;;4970006;29;20039;-74
2022/11/07 09:48:45;;;;;;;;;;;;;;;;;;;;;
2022/11/07 09:52:37;;;;;;;4.53;3.90;;;15.40;99.90;;;;;;4943325;29;20640;-73
2022/11/07 09:55:54;;;;;;;4.65;3.55;;;15.60;99.90;;;;;;4954056;30;20054;-73
2022/11/07 09:58:53;;;;;;;;;;;;;;;;;;;;;
2022/11/07 10:02:09;;;;;;;4.45;3.28;;;16.70;99.90;;;;;;4969752;29;20054;-73
2022/11/07 10:08:23;;;;;;;3.13;2.33;;;17.90;99.90;;;;;;4980082;29;20332;-74
2022/11/07 10:11:34;;;;;;;2.67;2.25;;;17.90;99.90;;;;;;4980740;29;20045;-73
2022/11/07 10:14:47;;;;;;;2.22;2.03;;;18.60;99.90;;;;;;4965375;29;20077;-74
2022/11/07 10:21:04;;;;;;;3.47;2.45;;;20.20;99.90;;;;;;4960910;29;20051;-74
2022/11/07 10:24:21;;;;;;;;;;;;;;;;;;;;;
2022/11/07 10:28:05;;;;;;;3.33;2.20;;;20.00;99.90;;;;;;4937347;29;20043;-74
2022/11/07 10:31:00;;;;;;;2.80;2.00;;;20.40;99.90;;;;;;4992377;29;20046;-75
2022/11/07 10:34:23;;;;;;;3.17;2.08;;;20.30;99.90;;;;;;5027648;29;20026;-76
2022/11/07 10:37:17;;;;;;;2.17;1.98;;;20.70;99.90;;;;;;5030179;29;20030;-75
2022/11/07 10:40:15;;;;;;;1.80;1.70;;;21.80;99.90;;;;;;5031757;29;20046;-73
2022/11/07 10:43:39;;;;;;;2.30;1.67;;;20.90;99.90;;;;;;5029681;29;20335;-73
2022/11/07 10:46:43;;;;;;;1.80;1.60;;;19.60;99.90;;;;;;4938962;29;20039;-75
2022/11/07 10:49:34;;;;;;;;;;;;;;;;;;;;;
2022/11/07 10:56:28;;;;;;;1.95;1.75;;;21.70;99.90;;;;;;4954502;29;20670;-75
2022/11/07 11:06:42;;;;;;;3.13;1.90;;;20.30;99.90;;;;;;4048526;30;26270080;-75
2022/11/07 11:09:35;;;;;;;;;;;;;;;;;;;;;
2022/11/07 11:12:52;;;;;;;4.25;1.80;;;19.80;99.90;;;;;;4924213;30;20051;-74
2022/11/07 11:15:44;;;;;;;1.90;1.80;;;20.00;99.90;;;;;;4916173;29;20035;-74
2022/11/07 11:18:47;;;;;;;3.95;1.95;;;20.30;99.90;;;;;;4906028;30;20191;-75
2022/11/07 11:25:25;;;;;;;2.25;1.92;;;19.70;99.90;;;;;;4924103;30;20052;-74
2022/11/07 11:28:32;;;;;;;4.03;2.03;;;19.50;99.90;;;;;;4979723;29;20089;-75
2022/11/07 11:31:47;;;;;;;2.30;2.00;;;20.30;99.90;;;;;;4938201;30;20047;-74
2022/11/07 11:34:59;;;;;;;;;;;21.80;99.90;;;;;;4881747;30;20017;-75
2022/11/07 11:38:02;;;;;;;2.92;1.70;;;21.50;99.90;;;;;;4899250;30;19919;-75
2022/11/07 11:41:11;;;;;;;4.03;1.58;;;20.90;99.90;;;;;;4936332;30;20082;-75
2022/11/07 11:48:26;;;;;;;2.67;1.90;;;23.90;99.90;;;;;;4970130;29;20047;-75
2022/11/07 11:51:23;;;;;;;2.47;2.10;;;22.90;99.90;;;;;;4927614;30;20040;-74
2022/11/07 11:54:15;;;;;;;2.75;1.90;;;23.50;99.90;;;;;;4932932;30;20039;-74
2022/11/07 11:57:40;;;;;;;2.35;1.77;;;22.30;99.90;;;;;;4931976;30;20032;-74
2022/11/07 12:00:45;;;;;;;3.00;2.25;;;22.20;99.90;;;;;;4933850;30;20202;-75
2022/11/07 12:03:57;;;;;;;3.67;2.20;;;22.90;99.90;;;;;;4950440;29;20046;-75
2022/11/07 12:06:53;;;;;;;1.48;1.30;;;24.20;99.90;;;;;;4905171;30;20159;-74
2022/11/07 12:10:09;;;;;;;2.30;0.77;;;23.80;99.90;;;;;;4916658;30;20038;-75
2022/11/07 12:13:21;;;;;;;1.10;1.00;;;22.50;99.90;;;;;;4925061;30;20360;-75
2022/11/07 12:16:33;;;;;;;1.38;0.93;;;21.30;99.90;;;;;;4915440;30;20346;-75
2022/11/07 12:23:19;;;;;;;0.85;0.80;;;21.90;99.90;;;;;;4933149;29;20053;-74
2022/11/07 12:26:23;;;;;;;1.25;1.00;;;20.30;99.90;;;;;;4932454;30;20043;-75
2022/11/07 12:29:31;;;;;;;0.80;0.80;;;19.40;99.90;;;;;;4987565;29;20038;-75
2022/11/07 12:32:49;;;;;;;1.88;0.93;;;19.80;99.90;;;;;;4988341;29;20072;-74
2022/11/07 12:35:54;;;;;;;1.40;0.93;;;19.70;99.90;;;;;;4988007;29;20033;-76
2022/11/07 12:39:14;;;;;;;0.85;0.80;;;19.60;99.90;;;;;;4989081;29;20178;-75
2022/11/07 12:42:20;;;;;;;0.82;0.82;;;19.80;99.90;;;;;;4988815;29;20201;-75
2022/11/07 12:45:46;;;;;;;0.90;0.90;;;20.30;99.90;;;;;;4989806;29;20052;-75
2022/11/07 12:49:06;;;;;;;;;;;;;;;;;;;;;
2022/11/07 12:52:59;;;;;;;1.23;0.63;;;20.70;99.90;;;;;;5045616;29;20049;-75
2022/11/07 12:56:23;;;;;;;2.25;0.80;;;20.40;99.90;;;;;;5043986;29;20021;-75
2022/11/07 12:59:22;;;;;;;1.10;1.00;;;21.10;99.90;;;;;;5040902;29;20042;-75
2022/11/07 13:02:34;;;;;;;0.80;0.80;;;20.60;99.90;;;;;;5088659;29;20044;-74
2022/11/07 13:05:57;;;;;;;1.05;0.70;;;21.30;99.90;;;;;;5099987;28;20055;-74
2022/11/07 13:08:54;;;;;;;1.85;0.70;;;21.20;99.90;;;;;;5063947;29;20040;-75
2022/11/07 13:12:15;;;;;;;0.88;0.80;;;20.80;99.90;;;;;;5063863;29;20080;-75
2022/11/07 13:15:11;;;;;;;0.80;0.77;;;21.40;99.90;;;;;;5063082;29;20050;-75
2022/11/07 13:18:32;;;;;;;1.55;0.77;;;21.10;99.90;;;;;;5063653;29;20042;-75
2022/11/07 13:21:24;;;;;;;1.20;0.75;;;21.10;99.90;;;;;;5063789;29;20326;-75
2022/11/07 13:24:43;;;;;;;1.17;1.08;;;20.90;99.90;;;;;;5065127;29;20047;-75
2022/11/07 13:27:40;;;;;;;1.50;0.90;;;21.40;99.90;;;;;;5036338;29;20037;-75
2022/11/07 13:30:38;;;;;;;1.92;1.30;;;22.20;99.90;;;;;;4999578;29;20347;-75
2022/11/07 13:33:32;;;;;;;1.27;0.90;;;21.60;99.90;;;;;;5022911;29;20049;-74
2022/11/07 13:36:30;;;;;;;2.47;0.95;;;21.70;99.90;;;;;;5037526;29;20041;-75
2022/11/07 13:39:23;;;;;;;0.85;0.80;;;21.80;99.90;;;;;;5039436;29;20032;-75
2022/11/07 13:42:18;;;;;;;1.85;0.82;;;22.50;99.90;;;;;;5048125;29;20586;-75
2022/11/07 13:45:34;;;;;;;2.75;1.00;;;23.20;99.90;;;;;;5053165;29;20040;-75
2022/11/07 13:48:38;;;;;;;1.95;1.27;;;23.60;99.90;;;;;;5037057;29;20031;-74
2022/11/07 13:52:07;;;;;;;7.93;1.30;;;23.40;99.90;;;;;;5166328;22;20070;-67
2022/11/07 13:55:10;;;;;;;2.13;1.00;;;22.10;99.90;;;;;;5183761;28;20068;-63
2022/11/07 13:58:07;;;;;;;1.63;1.20;;;22.00;99.90;;;;;;5167097;28;20081;-64
2022/11/07 14:01:12;;;;;;;0.80;0.80;;;22.20;99.90;;;;;;5180855;28;20045;-68
2022/11/07 14:04:18;;;;;;;1.50;1.05;;;22.50;99.90;;;;;;5179830;28;20235;-63
2022/11/07 14:07:10;;;;;;;1.90;1.60;;;22.30;99.90;;;;;;5132207;28;20064;-64
2022/11/07 14:10:04;;;;;;;3.17;2.50;;;21.80;99.90;;;;;;5164629;28;20034;-63
2022/11/07 14:13:12;;;;;;;1.92;1.52;;;21.10;99.90;;;;;;5153485;28;20038;-67
2022/11/07 14:16:25;;;;;;;4.28;2.20;;;20.40;99.90;;;;;;5166224;28;20104;-61
2022/11/07 14:19:25;;;;;;;3.50;1.55;;;19.50;99.90;;;;;;5100753;29;20036;-69
2022/11/07 14:22:37;;;;;;;3.10;1.88;;;18.80;99.90;;;;;;5102798;29;20023;-68
2022/11/07 14:25:53;;;;;;;;;;;;;;;;;;;;;
2022/11/07 14:29:22;;;;;;;4.30;1.60;;;17.50;99.90;;;;;;5042574;29;20029;-61
2022/11/07 14:32:16;;;;;;;;;;;;;;;;;;;;;
2022/11/07 14:35:34;;;;;;;1.88;1.73;;;16.00;99.90;;;;;;5067511;29;20028;-63
2022/11/07 14:38:35;;;;;;;3.35;1.60;;;15.60;99.90;;;;;;5057355;29;20031;-65
2022/11/07 14:41:27;;;;;;;2.90;1.90;;;15.40;99.90;;;;;;5063376;29;20041;-62
2022/11/07 14:44:46;;;;;;;;;;;;;;;;;;;;;
2022/11/07 14:48:03;;;;;;;2.17;1.98;;;14.90;99.90;;;;;;5027492;29;20117;-68
2022/11/07 14:51:20;;;;;;;5.28;2.25;;;14.70;99.90;;;;;;5029921;29;20072;-60
2022/11/07 14:54:16;;;;;;;2.33;1.70;;;14.50;99.90;;;;;;4972365;29;20365;-63
2022/11/07 14:57:29;;;;;;;2.03;1.83;;;14.50;99.90;;;;;;4973980;29;20034;-60
2022/11/07 15:00:23;;;;;;;5.22;3.15;;;14.40;99.90;;;;;;4969295;29;20248;-67
2022/11/07 15:03:20;;;;;;;3.60;2.42;;;14.10;99.90;;;;;;4973380;29;20035;-67
2022/11/07 15:06:23;;;;;;;5.30;3.05;;;13.90;99.90;;;;;;5022156;29;20068;-65
2022/11/07 15:09:55;;;;;;;4.47;2.17;;;13.70;99.90;;;;;;5077633;29;20347;-63
2022/11/07 15:12:52;;;;;;;2.15;1.95;;;13.50;99.90;;;;;;5061653;29;20052;-60
2022/11/07 15:15:57;;;;;;;5.28;2.10;;;13.40;99.90;;;;;;5054382;29;20279;-63
2022/11/07 15:18:57;;;;;;;1.85;1.50;;;13.30;99.90;;;;;;5059649;29;20362;-65
2022/11/07 15:21:55;;;;;;;4.50;1.95;;;13.20;99.90;;;;;;5040793;29;20078;-63
2022/11/07 15:25:31;;;;;;;2.72;1.98;;;13.00;99.90;;;;;;5080096;29;20048;-64
2022/11/07 15:28:27;;;;;;;3.07;2.33;;;13.00;99.90;;;;;;5027465;29;20037;-62
2022/11/07 15:31:24;;;;;;;3.70;2.80;;;12.80;99.90;;;;;;5069381;28;20056;-66
2022/11/07 15:37:33;;;;;;;4.18;2.30;;;12.50;99.90;;;;;;5015987;29;20418;-65
2022/11/07 15:40:44;;;;;;;3.92;3.25;;;12.20;99.90;;;;;;5007843;29;20348;-66
2022/11/07 15:43:37;;;;;;;;;;;;;;;;;;;;;
2022/11/07 15:46:49;;;;;;;4.53;3.67;;;11.90;99.90;;;;;;4975634;29;20035;-64
2022/11/07 15:49:40;;;;;;;9.45;5.65;;;11.70;99.90;;;;;;4997019;29;20038;-62
2022/11/07 15:52:37;;;;;;;3.35;2.80;;;11.60;99.90;;;;;;4994487;29;20083;-63
2022/11/07 15:55:30;;;;;;;3.83;2.05;;;11.50;99.90;;;;;;5004892;29;20038;-68
2022/11/07 15:58:28;;;;;;;5.25;2.13;;;11.40;99.90;;;;;;5008143;29;20041;-63
2022/11/07 16:01:19;;;;;;;4.75;2.20;;;11.20;99.90;;;;;;5007988;29;20050;-65
2022/11/07 16:04:13;;;;;;;3.00;1.98;;;11.00;99.90;;;;;;5012959;29;20413;-64
2022/11/07 16:07:19;;;;;;;2.80;2.10;;;10.90;99.90;;;;;;5062119;29;20257;-64
2022/11/07 16:10:38;;;;;;;6.75;3.35;;;10.90;99.90;;;;;;5056733;29;20230;-67
2022/11/07 16:13:30;;;;;;;20.90;10.35;;;10.90;99.90;;;;;;5010365;29;20039;-64
2022/11/07 16:16:42;;;;;;;10.18;5.28;;;10.90;99.90;;;;;;5103830;28;20043;-62
2022/11/07 16:19:34;;;;;;;6.93;3.90;;;10.70;99.90;;;;;;5088994;29;20032;-63
2022/11/07 16:25:42;;;;;;;7.22;3.20;;;10.60;99.90;;;;;;5055422;29;20036;-67
2022/11/07 16:28:34;;;;;;;;;;;;;;;;;;;;;
2022/11/07 16:32:10;;;;;;;6.53;4.50;;;10.40;99.90;;;;;;5084485;29;20041;-63
2022/11/07 16:35:01;;;;;;;6.18;3.83;;;10.30;99.90;;;;;;5052351;29;20342;-60
2022/11/07 16:37:56;;;;;;;10.68;3.58;;;10.20;99.90;;;;;;5033718;29;20048;-63
2022/11/07 16:40:48;;;;;;;5.85;4.47;;;10.10;99.90;;;;;;5037915;29;20329;-64
2022/11/07 16:43:59;;;;;;;8.88;4.68;;;10.10;99.90;;;;;;5053473;29;20029;-64
2022/11/07 16:46:53;;;;;;;;;;;;;;;;;;;;;
2022/11/07 16:50:05;;;;;;;11.82;6.97;;;10.00;99.90;;;;;;5007974;29;20177;-63
2022/11/07 16:56:29;;;;;;;8.77;6.43;;;9.90;99.90;;;;;;4980700;29;20042;-61
2022/11/07 16:59:22;;;;;;;3.50;2.42;;;9.80;99.90;;;;;;4975571;29;20034;-68
2022/11/07 17:02:20;;;;;;;7.72;2.85;;;9.70;99.90;;;;;;4982563;29;20373;-66
2022/11/07 17:05:11;;;;;;;5.43;2.42;;;9.70;99.90;;;;;;4998342;29;20054;-65
2022/11/07 17:08:09;;;;;;;4.40;3.03;;;9.60;99.90;;;;;;4995748;29;20050;-63
2022/11/07 17:11:01;;;;;;;8.43;3.72;;;9.60;99.90;;;;;;4982110;29;20049;-65
2022/11/07 17:14:16;;;;;;;7.10;3.95;;;9.50;99.90;;;;;;5040836;29;20056;-64
2022/11/07 17:17:07;;;;;;;6.55;4.55;;;9.50;99.90;;;;;;4991957;29;20241;-63
2022/11/07 17:19:59;;;;;;;7.60;5.05;;;9.40;99.90;;;;;;5006328;29;20086;-61
2022/11/07 17:22:50;;;;;;;6.43;4.53;;;9.40;99.90;;;;;;5010946;29;20218;-66
2022/11/07 17:26:04;;;;;;;7.47;4.50;;;9.30;99.90;;;;;;5029066;29;20038;-67
2022/11/07 17:28:57;;;;;;;8.13;5.65;;;9.20;99.90;;;;;;5045748;29;20037;-60
2022/11/07 17:31:49;;;;;;;40.33;20.15;;;9.10;99.90;;;;;;5045665;29;20036;-66
2022/11/07 17:34:40;;;;;;;33.53;17.15;;;9.10;99.90;;;;;;5071238;29;20044;-61
2022/11/07 17:37:52;;;;;;;31.90;19.50;;;9.10;99.90;;;;;;5083957;29;20026;-60
2022/11/07 17:40:43;;;;;;;44.47;24.35;;;9.10;99.90;;;;;;5042299;29;20033;-64
2022/11/07 17:43:35;;;;;;;33.30;18.98;;;9.00;99.90;;;;;;5036447;29;20350;-64
2022/11/07 17:46:29;;;;;;;17.42;11.48;;;8.90;99.90;;;;;;5044217;29;20051;-62